sensor_id;sensor_type;location;lat;lon;timestamp;pressure;altitude;pressure_sealevel;temperature;humidity
28701;BME280;15877;52.344;16.790;2023-04-01T00:00:58;98725.27;;;12.73;82.69
28701;BME280;15877;52.344;16.790;2023-04-01T00:03:31;98727.15;;;12.59;83.62
28701;BME280;15877;52.344;16.790;2023-04-01T00:06:05;98728.30;;;12.60;83.33
28701;BME280;15877;52.344;16.790;2023-04-01T00:08:38;98724.19;;;12.64;83.63
28701;BME280;15877;52.344;16.790;2023-04-01T00:11:10;98725.42;;;12.61;83.92
28701;BME280;15877;52.344;16.790;2023-04-01T00:13:43;98723.87;;;12.53;84.42
28701;BME280;15877;52.344;16.790;2023-04-01T00:16:16;98721.70;;;12.54;84.69
28701;BME280;15877;52.344;16.790;2023-04-01T00:18:52;98722.84;;;12.40;85.44
28701;BME280;15877;52.344;16.790;2023-04-01T00:21:25;98720.91;;;12.43;85.83
28701;BME280;15877;52.344;16.790;2023-04-01T00:23:57;98718.94;;;12.40;86.05
28701;BME280;15877;52.344;16.790;2023-04-01T00:26:30;98718.87;;;12.40;86.05
28701;BME280;15877;52.344;16.790;2023-04-01T00:29:02;98715.83;;;12.35;86.41
28701;BME280;15877;52.344;16.790;2023-04-01T00:31:35;98718.30;;;12.40;86.23
28701;BME280;15877;52.344;16.790;2023-04-01T00:34:08;98712.99;;;12.51;85.70
28701;BME280;15877;52.344;16.790;2023-04-01T00:36:41;98714.85;;;12.42;85.94
28701;BME280;15877;52.344;16.790;2023-04-01T00:39:13;98716.05;;;12.36;86.26
28701;BME280;15877;52.344;16.790;2023-04-01T00:41:46;98719.17;;;12.47;85.68
28701;BME280;15877;52.344;16.790;2023-04-01T00:44:23;98718.61;;;12.53;85.38
28701;BME280;15877;52.344;16.790;2023-04-01T00:46:56;98715.02;;;12.49;85.59
28701;BME280;15877;52.344;16.790;2023-04-01T00:49:32;98714.89;;;12.40;85.64
28701;BME280;15877;52.344;16.790;2023-04-01T00:52:07;98715.80;;;12.37;85.99
28701;BME280;15877;52.344;16.790;2023-04-01T00:54:39;98710.01;;;12.43;85.97
28701;BME280;15877;52.344;16.790;2023-04-01T00:57:17;98701.84;;;12.46;85.58
28701;BME280;15877;52.344;16.790;2023-04-01T00:59:54;98707.64;;;12.46;85.43
28701;BME280;15877;52.344;16.790;2023-04-01T01:02:27;98701.48;;;12.51;85.27
28701;BME280;15877;52.344;16.790;2023-04-01T01:05:00;98705.11;;;12.56;84.87
28701;BME280;15877;52.344;16.790;2023-04-01T01:07:38;98705.79;;;12.54;85.11
28701;BME280;15877;52.344;16.790;2023-04-01T01:10:19;98709.70;;;12.52;85.07
28701;BME280;15877;52.344;16.790;2023-04-01T01:13:02;98701.27;;;12.52;84.90
28701;BME280;15877;52.344;16.790;2023-04-01T01:15:41;98704.03;;;12.48;85.08
28701;BME280;15877;52.344;16.790;2023-04-01T01:18:22;98699.30;;;12.56;84.82
28701;BME280;15877;52.344;16.790;2023-04-01T01:24:29;98693.19;;;12.56;84.71
28701;BME280;15877;52.344;16.790;2023-04-01T01:27:10;98693.14;;;12.53;84.60
28701;BME280;15877;52.344;16.790;2023-04-01T01:30:14;98696.23;;;12.53;84.68
28701;BME280;15877;52.344;16.790;2023-04-01T01:33:17;98695.63;;;12.46;85.09
28701;BME280;15877;52.344;16.790;2023-04-01T01:35:53;98697.23;;;12.45;85.31
28701;BME280;15877;52.344;16.790;2023-04-01T01:38:31;98698.59;;;12.50;84.84
28701;BME280;15877;52.344;16.790;2023-04-01T01:41:08;98699.15;;;12.44;85.20
28701;BME280;15877;52.344;16.790;2023-04-01T01:43:44;98699.46;;;12.39;85.24
28701;BME280;15877;52.344;16.790;2023-04-01T01:46:21;98698.67;;;12.45;85.06
28701;BME280;15877;52.344;16.790;2023-04-01T01:48:57;98701.72;;;12.23;85.66
28701;BME280;15877;52.344;16.790;2023-04-01T01:51:31;98698.85;;;12.31;86.00
28701;BME280;15877;52.344;16.790;2023-04-01T01:54:04;98690.24;;;12.43;85.31
28701;BME280;15877;52.344;16.790;2023-04-01T01:56:37;98693.86;;;12.48;84.96
28701;BME280;15877;52.344;16.790;2023-04-01T01:59:12;98693.59;;;12.49;84.38
28701;BME280;15877;52.344;16.790;2023-04-01T02:01:49;98691.92;;;12.43;84.83
28701;BME280;15877;52.344;16.790;2023-04-01T02:04:23;98695.83;;;12.43;84.64
28701;BME280;15877;52.344;16.790;2023-04-01T02:07:02;98693.55;;;12.47;84.55
28701;BME280;15877;52.344;16.790;2023-04-01T02:09:34;98692.91;;;12.53;83.92
28701;BME280;15877;52.344;16.790;2023-04-01T02:12:09;98699.83;;;12.41;84.28
28701;BME280;15877;52.344;16.790;2023-04-01T02:14:47;98695.20;;;12.36;84.78
28701;BME280;15877;52.344;16.790;2023-04-01T02:17:25;98699.32;;;12.38;84.89
28701;BME280;15877;52.344;16.790;2023-04-01T02:20:01;98691.95;;;12.35;85.15
28701;BME280;15877;52.344;16.790;2023-04-01T02:22:39;98689.98;;;12.35;85.19
28701;BME280;15877;52.344;16.790;2023-04-01T02:25:15;98686.19;;;12.38;85.03
28701;BME280;15877;52.344;16.790;2023-04-01T02:27:50;98682.39;;;12.43;84.65
28701;BME280;15877;52.344;16.790;2023-04-01T02:30:23;98681.33;;;12.45;84.47
28701;BME280;15877;52.344;16.790;2023-04-01T02:32:58;98684.96;;;12.46;84.40
28701;BME280;15877;52.344;16.790;2023-04-01T02:35:31;98687.59;;;12.46;84.35
28701;BME280;15877;52.344;16.790;2023-04-01T02:38:05;98683.35;;;12.42;84.64
28701;BME280;15877;52.344;16.790;2023-04-01T02:40:47;98682.98;;;12.34;85.06
28701;BME280;15877;52.344;16.790;2023-04-01T02:43:22;98674.55;;;12.35;84.66
28701;BME280;15877;52.344;16.790;2023-04-01T02:45:55;98687.79;;;12.44;84.64
28701;BME280;15877;52.344;16.790;2023-04-01T02:48:28;98690.55;;;12.46;84.43
28701;BME280;15877;52.344;16.790;2023-04-01T02:51:01;98681.70;;;12.34;84.62
28701;BME280;15877;52.344;16.790;2023-04-01T02:53:33;98694.57;;;12.36;84.98
28701;BME280;15877;52.344;16.790;2023-04-01T02:56:06;98681.65;;;12.32;84.80
28701;BME280;15877;52.344;16.790;2023-04-01T02:58:39;98701.71;;;12.45;84.64
28701;BME280;15877;52.344;16.790;2023-04-01T03:01:11;98701.03;;;12.41;84.62
28701;BME280;15877;52.344;16.790;2023-04-01T03:03:44;98704.23;;;12.34;84.69
28701;BME280;15877;52.344;16.790;2023-04-01T03:06:17;98693.73;;;12.27;84.91
28701;BME280;15877;52.344;16.790;2023-04-01T03:08:50;98708.07;;;12.39;84.79
28701;BME280;15877;52.344;16.790;2023-04-01T03:11:23;98708.88;;;12.37;84.72
28701;BME280;15877;52.344;16.790;2023-04-01T03:13:57;98707.10;;;12.32;84.91
28701;BME280;15877;52.344;16.790;2023-04-01T03:16:29;98707.65;;;12.32;85.12
28701;BME280;15877;52.344;16.790;2023-04-01T03:19:02;98710.77;;;12.39;84.90
28701;BME280;15877;52.344;16.790;2023-04-01T03:21:35;98712.02;;;12.41;84.74
28701;BME280;15877;52.344;16.790;2023-04-01T03:24:08;98708.23;;;12.44;84.59
28701;BME280;15877;52.344;16.790;2023-04-01T03:26:41;98708.08;;;12.43;84.43
28701;BME280;15877;52.344;16.790;2023-04-01T03:29:16;98698.95;;;12.29;84.64
28701;BME280;15877;52.344;16.790;2023-04-01T03:31:55;98704.98;;;12.23;85.28
28701;BME280;15877;52.344;16.790;2023-04-01T03:34:30;98705.97;;;12.27;85.36
28701;BME280;15877;52.344;16.790;2023-04-01T03:37:02;98695.28;;;12.24;85.21
28701;BME280;15877;52.344;16.790;2023-04-01T03:39:35;98705.05;;;12.31;85.05
28701;BME280;15877;52.344;16.790;2023-04-01T03:42:08;98706.48;;;12.25;85.31
28701;BME280;15877;52.344;16.790;2023-04-01T03:44:40;98706.41;;;12.23;85.60
28701;BME280;15877;52.344;16.790;2023-04-01T03:47:13;98708.32;;;12.23;85.57
28701;BME280;15877;52.344;16.790;2023-04-01T03:49:47;98707.20;;;12.30;85.32
28701;BME280;15877;52.344;16.790;2023-04-01T03:52:20;98713.20;;;12.27;85.32
28701;BME280;15877;52.344;16.790;2023-04-01T03:54:53;98712.35;;;12.27;85.37
28701;BME280;15877;52.344;16.790;2023-04-01T03:57:27;98716.80;;;12.33;85.12
28701;BME280;15877;52.344;16.790;2023-04-01T03:59:59;98719.77;;;12.37;84.89
28701;BME280;15877;52.344;16.790;2023-04-01T04:02:44;98721.91;;;12.38;84.79
28701;BME280;15877;52.344;16.790;2023-04-01T04:05:18;98721.22;;;12.36;84.95
28701;BME280;15877;52.344;16.790;2023-04-01T04:07:52;98723.40;;;12.40;84.60
28701;BME280;15877;52.344;16.790;2023-04-01T04:10:25;98713.65;;;12.30;84.87
28701;BME280;15877;52.344;16.790;2023-04-01T04:12:58;98731.06;;;12.38;84.87
28701;BME280;15877;52.344;16.790;2023-04-01T04:15:32;98737.55;;;12.48;84.24
28701;BME280;15877;52.344;16.790;2023-04-01T04:18:05;98737.23;;;12.54;83.61
28701;BME280;15877;52.344;16.790;2023-04-01T04:20:38;98739.13;;;12.49;83.76
28701;BME280;15877;52.344;16.790;2023-04-01T04:23:17;98736.98;;;12.48;83.54
28701;BME280;15877;52.344;16.790;2023-04-01T04:25:58;98737.27;;;12.43;83.79
28701;BME280;15877;52.344;16.790;2023-04-01T04:28:32;98740.90;;;12.47;83.70
28701;BME280;15877;52.344;16.790;2023-04-01T04:31:06;98742.98;;;12.45;83.34
28701;BME280;15877;52.344;16.790;2023-04-01T04:33:39;98742.26;;;12.40;83.51
28701;BME280;15877;52.344;16.790;2023-04-01T04:36:11;98745.84;;;12.34;84.03
28701;BME280;15877;52.344;16.790;2023-04-01T04:38:45;98745.45;;;12.33;84.20
28701;BME280;15877;52.344;16.790;2023-04-01T04:41:19;98752.23;;;12.32;84.51
28701;BME280;15877;52.344;16.790;2023-04-01T04:43:55;98752.29;;;12.32;84.09
28701;BME280;15877;52.344;16.790;2023-04-01T04:46:30;98752.80;;;12.22;84.61
28701;BME280;15877;52.344;16.790;2023-04-01T04:49:11;98751.47;;;12.27;84.17
28701;BME280;15877;52.344;16.790;2023-04-01T04:51:44;98753.42;;;12.31;83.71
28701;BME280;15877;52.344;16.790;2023-04-01T04:54:18;98758.63;;;12.28;83.79
28701;BME280;15877;52.344;16.790;2023-04-01T04:56:57;98760.20;;;12.30;83.87
28701;BME280;15877;52.344;16.790;2023-04-01T04:59:32;98762.01;;;12.32;83.50
28701;BME280;15877;52.344;16.790;2023-04-01T05:02:27;98764.76;;;12.35;83.38
28701;BME280;15877;52.344;16.790;2023-04-01T05:05:00;98768.20;;;12.32;83.27
28701;BME280;15877;52.344;16.790;2023-04-01T05:07:35;98773.90;;;12.28;83.78
28701;BME280;15877;52.344;16.790;2023-04-01T05:10:09;98775.00;;;12.29;84.09
28701;BME280;15877;52.344;16.790;2023-04-01T05:12:42;98772.71;;;12.28;84.18
28701;BME280;15877;52.344;16.790;2023-04-01T05:15:20;98771.30;;;12.26;84.32
28701;BME280;15877;52.344;16.790;2023-04-01T05:17:53;98773.91;;;12.27;84.33
28701;BME280;15877;52.344;16.790;2023-04-01T05:20:26;98779.08;;;12.28;84.77
28701;BME280;15877;52.344;16.790;2023-04-01T05:22:59;98780.59;;;12.33;84.45
28701;BME280;15877;52.344;16.790;2023-04-01T05:25:33;98782.48;;;12.37;84.34
28701;BME280;15877;52.344;16.790;2023-04-01T05:28:06;98782.23;;;12.37;84.22
28701;BME280;15877;52.344;16.790;2023-04-01T05:30:41;98787.36;;;12.40;84.43
28701;BME280;15877;52.344;16.790;2023-04-01T05:33:24;98788.73;;;12.39;83.72
28701;BME280;15877;52.344;16.790;2023-04-01T05:36:07;98785.20;;;12.35;84.14
28701;BME280;15877;52.344;16.790;2023-04-01T05:38:40;98789.32;;;12.36;84.30
28701;BME280;15877;52.344;16.790;2023-04-01T05:41:15;98790.67;;;12.36;84.39
28701;BME280;15877;52.344;16.790;2023-04-01T05:43:48;98791.30;;;12.37;84.31
28701;BME280;15877;52.344;16.790;2023-04-01T05:46:39;98791.04;;;12.40;83.83
28701;BME280;15877;52.344;16.790;2023-04-01T05:49:23;98792.38;;;12.25;84.29
28701;BME280;15877;52.344;16.790;2023-04-01T05:51:59;98796.10;;;12.21;84.79
28701;BME280;15877;52.344;16.790;2023-04-01T05:54:32;98794.64;;;12.15;85.04
28701;BME280;15877;52.344;16.790;2023-04-01T05:57:05;98793.57;;;12.18;85.36
28701;BME280;15877;52.344;16.790;2023-04-01T05:59:38;98796.53;;;12.25;85.11
28701;BME280;15877;52.344;16.790;2023-04-01T06:02:12;98799.89;;;12.23;85.10
28701;BME280;15877;52.344;16.790;2023-04-01T06:04:45;98798.70;;;12.15;85.26
28701;BME280;15877;52.344;16.790;2023-04-01T06:07:19;98799.70;;;12.18;85.26
28701;BME280;15877;52.344;16.790;2023-04-01T06:09:51;98799.13;;;12.13;85.51
28701;BME280;15877;52.344;16.790;2023-04-01T06:12:43;98804.23;;;12.18;85.45
28701;BME280;15877;52.344;16.790;2023-04-01T06:15:25;98805.38;;;12.23;85.10
28701;BME280;15877;52.344;16.790;2023-04-01T06:18:31;98809.89;;;12.24;85.01
28701;BME280;15877;52.344;16.790;2023-04-01T06:21:20;98808.61;;;12.26;85.18
28701;BME280;15877;52.344;16.790;2023-04-01T06:24:22;98813.03;;;12.21;85.26
28701;BME280;15877;52.344;16.790;2023-04-01T06:27:02;98813.47;;;12.24;85.29
28701;BME280;15877;52.344;16.790;2023-04-01T06:29:49;98816.73;;;12.25;85.20
28701;BME280;15877;52.344;16.790;2023-04-01T06:32:33;98819.89;;;12.26;85.59
28701;BME280;15877;52.344;16.790;2023-04-01T06:35:24;98822.87;;;12.23;85.71
28701;BME280;15877;52.344;16.790;2023-04-01T06:38:34;98820.63;;;12.26;85.78
28701;BME280;15877;52.344;16.790;2023-04-01T06:41:25;98826.54;;;12.31;85.97
28701;BME280;15877;52.344;16.790;2023-04-01T06:44:14;98830.23;;;12.35;86.07
28701;BME280;15877;52.344;16.790;2023-04-01T06:47:22;98829.39;;;12.39;86.08
28701;BME280;15877;52.344;16.790;2023-04-01T06:50:24;98831.86;;;12.39;85.68
28701;BME280;15877;52.344;16.790;2023-04-01T06:53:19;98834.11;;;12.43;85.42
28701;BME280;15877;52.344;16.790;2023-04-01T06:56:15;98839.30;;;12.43;85.28
28701;BME280;15877;52.344;16.790;2023-04-01T06:59:04;98836.88;;;12.45;85.39
28701;BME280;15877;52.344;16.790;2023-04-01T07:01:41;98840.20;;;12.47;84.94
28701;BME280;15877;52.344;16.790;2023-04-01T07:04:18;98841.40;;;12.46;85.24
28701;BME280;15877;52.344;16.790;2023-04-01T07:06:56;98846.31;;;12.49;84.68
28701;BME280;15877;52.344;16.790;2023-04-01T07:09:33;98847.05;;;12.39;85.26
28701;BME280;15877;52.344;16.790;2023-04-01T07:12:36;98850.53;;;12.33;85.64
28701;BME280;15877;52.344;16.790;2023-04-01T07:15:54;98853.47;;;12.34;85.61
28701;BME280;15877;52.344;16.790;2023-04-01T07:18:34;98855.49;;;12.29;86.03
28701;BME280;15877;52.344;16.790;2023-04-01T07:21:16;98860.96;;;12.31;86.46
28701;BME280;15877;52.344;16.790;2023-04-01T07:23:54;98858.26;;;12.33;86.44
28701;BME280;15877;52.344;16.790;2023-04-01T07:26:36;98866.27;;;12.27;86.82
28701;BME280;15877;52.344;16.790;2023-04-01T07:29:17;98865.27;;;12.22;87.56
28701;BME280;15877;52.344;16.790;2023-04-01T07:32:09;98867.48;;;12.32;87.37
28701;BME280;15877;52.344;16.790;2023-04-01T07:34:52;98865.02;;;12.24;87.71
28701;BME280;15877;52.344;16.790;2023-04-01T07:37:30;98870.29;;;12.22;87.81
28701;BME280;15877;52.344;16.790;2023-04-01T07:40:15;98874.48;;;12.16;88.15
28701;BME280;15877;52.344;16.790;2023-04-01T07:43:03;98874.59;;;12.22;88.47
28701;BME280;15877;52.344;16.790;2023-04-01T07:45:47;98872.65;;;12.18;88.78
28701;BME280;15877;52.344;16.790;2023-04-01T07:48:26;98880.61;;;12.25;88.85
28701;BME280;15877;52.344;16.790;2023-04-01T07:51:09;98873.29;;;12.25;88.38
28701;BME280;15877;52.344;16.790;2023-04-01T07:53:48;98889.59;;;12.42;88.19
28701;BME280;15877;52.344;16.790;2023-04-01T07:56:30;98889.61;;;12.47;87.72
28701;BME280;15877;52.344;16.790;2023-04-01T07:59:08;98893.14;;;12.46;87.44
28701;BME280;15877;52.344;16.790;2023-04-01T08:02:19;98895.70;;;12.44;87.85
28701;BME280;15877;52.344;16.790;2023-04-01T08:05:02;98899.06;;;12.49;88.03
28701;BME280;15877;52.344;16.790;2023-04-01T08:07:44;98900.25;;;12.50;88.77
28701;BME280;15877;52.344;16.790;2023-04-01T08:10:49;98908.65;;;12.53;88.99
28701;BME280;15877;52.344;16.790;2023-04-01T08:13:45;98908.33;;;12.61;89.06
28701;BME280;15877;52.344;16.790;2023-04-01T08:16:48;98914.52;;;12.70;89.00
28701;BME280;15877;52.344;16.790;2023-04-01T08:19:36;98913.24;;;12.77;88.89
28701;BME280;15877;52.344;16.790;2023-04-01T08:22:16;98915.04;;;12.81;89.14
28701;BME280;15877;52.344;16.790;2023-04-01T08:24:53;98904.64;;;12.85;88.61
28701;BME280;15877;52.344;16.790;2023-04-01T08:27:34;98917.35;;;13.03;87.94
28701;BME280;15877;52.344;16.790;2023-04-01T08:30:20;98923.31;;;13.11;87.81
28701;BME280;15877;52.344;16.790;2023-04-01T08:32:58;98906.04;;;13.03;88.01
28701;BME280;15877;52.344;16.790;2023-04-01T08:35:36;98929.60;;;13.18;87.20
28701;BME280;15877;52.344;16.790;2023-04-01T08:38:17;98932.26;;;13.22;86.93
28701;BME280;15877;52.344;16.790;2023-04-01T08:40:58;98936.45;;;13.30;86.84
28701;BME280;15877;52.344;16.790;2023-04-01T08:44:15;98923.15;;;13.29;86.36
28701;BME280;15877;52.344;16.790;2023-04-01T08:47:21;98931.97;;;13.38;85.73
28701;BME280;15877;52.344;16.790;2023-04-01T08:50:23;98941.45;;;13.44;85.93
28701;BME280;15877;52.344;16.790;2023-04-01T08:53:26;98946.40;;;13.54;84.74
28701;BME280;15877;52.344;16.790;2023-04-01T08:56:14;98945.38;;;13.55;84.73
28701;BME280;15877;52.344;16.790;2023-04-01T08:59:01;98947.98;;;13.50;84.70
28701;BME280;15877;52.344;16.790;2023-04-01T09:02:00;98937.97;;;13.42;83.91
28701;BME280;15877;52.344;16.790;2023-04-01T09:05:24;98954.36;;;13.44;83.32
28701;BME280;15877;52.344;16.790;2023-04-01T09:08:10;98960.67;;;13.42;83.64
28701;BME280;15877;52.344;16.790;2023-04-01T09:11:06;98956.42;;;13.39;83.98
28701;BME280;15877;52.344;16.790;2023-04-01T09:14:23;98966.00;;;13.44;84.45
28701;BME280;15877;52.344;16.790;2023-04-01T09:17:31;98957.28;;;13.40;84.77
28701;BME280;15877;52.344;16.790;2023-04-01T09:20:44;98974.37;;;13.49;84.52
28701;BME280;15877;52.344;16.790;2023-04-01T09:23:31;98975.80;;;13.50;83.85
28701;BME280;15877;52.344;16.790;2023-04-01T09:29:16;98981.91;;;13.53;83.55
28701;BME280;15877;52.344;16.790;2023-04-01T09:32:07;98978.77;;;13.50;84.06
28701;BME280;15877;52.344;16.790;2023-04-01T09:35:22;98992.04;;;13.52;82.86
28701;BME280;15877;52.344;16.790;2023-04-01T09:38:05;98993.89;;;13.51;82.69
28701;BME280;15877;52.344;16.790;2023-04-01T09:40:51;99001.96;;;13.50;83.12
28701;BME280;15877;52.344;16.790;2023-04-01T09:43:57;99005.20;;;13.51;83.16
28701;BME280;15877;52.344;16.790;2023-04-01T09:46:50;99006.74;;;13.43;82.47
28701;BME280;15877;52.344;16.790;2023-04-01T09:49:42;99006.73;;;13.37;83.15
28701;BME280;15877;52.344;16.790;2023-04-01T09:52:29;99010.67;;;13.46;83.29
28701;BME280;15877;52.344;16.790;2023-04-01T09:55:46;99015.82;;;13.50;83.56
28701;BME280;15877;52.344;16.790;2023-04-01T09:58:40;99019.42;;;13.48;83.40
28701;BME280;15877;52.344;16.790;2023-04-01T10:01:47;99022.13;;;13.42;82.39
28701;BME280;15877;52.344;16.790;2023-04-01T10:07:58;99030.59;;;13.41;81.54
28701;BME280;15877;52.344;16.790;2023-04-01T10:14:22;99039.55;;;13.31;81.49
28701;BME280;15877;52.344;16.790;2023-04-01T10:17:21;99038.75;;;13.31;81.49
28701;BME280;15877;52.344;16.790;2023-04-01T10:20:29;99043.48;;;13.36;81.23
28701;BME280;15877;52.344;16.790;2023-04-01T10:23:22;99048.59;;;13.13;81.92
28701;BME280;15877;52.344;16.790;2023-04-01T10:33:29;99056.46;;;13.15;81.44
28701;BME280;15877;52.344;16.790;2023-04-01T10:36:44;99059.19;;;13.13;81.30
28701;BME280;15877;52.344;16.790;2023-04-01T10:49:43;99068.36;;;12.85;81.51
28701;BME280;15877;52.344;16.790;2023-04-01T10:55:40;99075.66;;;12.88;81.54
28701;BME280;15877;52.344;16.790;2023-04-01T10:58:56;99077.33;;;12.87;81.75
28701;BME280;15877;52.344;16.790;2023-04-01T11:06:18;99069.96;;;12.66;82.06
28701;BME280;15877;52.344;16.790;2023-04-01T11:15:52;99089.14;;;12.75;82.11
28701;BME280;15877;52.344;16.790;2023-04-01T11:22:17;99093.83;;;12.87;81.10
28701;BME280;15877;52.344;16.790;2023-04-01T11:31:38;99100.13;;;12.86;80.56
28701;BME280;15877;52.344;16.790;2023-04-01T11:34:20;99102.27;;;12.76;80.46
28701;BME280;15877;52.344;16.790;2023-04-01T11:37:06;99107.05;;;12.76;80.67
28701;BME280;15877;52.344;16.790;2023-04-01T11:39:57;99113.89;;;12.66;81.16
28701;BME280;15877;52.344;16.790;2023-04-01T11:42:55;99114.86;;;12.63;81.36
28701;BME280;15877;52.344;16.790;2023-04-01T11:46:12;99120.34;;;12.65;80.85
28701;BME280;15877;52.344;16.790;2023-04-01T11:48:56;99120.01;;;12.68;80.63
28701;BME280;15877;52.344;16.790;2023-04-01T11:51:54;99127.36;;;12.63;81.05
28701;BME280;15877;52.344;16.790;2023-04-01T11:54:42;99131.59;;;12.62;80.64
28701;BME280;15877;52.344;16.790;2023-04-01T12:00:27;99136.76;;;12.65;80.93
28701;BME280;15877;52.344;16.790;2023-04-01T12:03:26;99136.59;;;12.64;80.94
28701;BME280;15877;52.344;16.790;2023-04-01T12:06:00;99141.98;;;12.69;81.13
28701;BME280;15877;52.344;16.790;2023-04-01T12:08:39;99147.14;;;12.79;80.41
28701;BME280;15877;52.344;16.790;2023-04-01T12:11:17;99150.71;;;12.71;80.49
28701;BME280;15877;52.344;16.790;2023-04-01T12:13:59;99152.98;;;12.77;80.61
28701;BME280;15877;52.344;16.790;2023-04-01T12:16:57;99146.71;;;12.75;80.66
28701;BME280;15877;52.344;16.790;2023-04-01T12:19:41;99157.21;;;12.75;80.18
28701;BME280;15877;52.344;16.790;2023-04-01T12:22:32;99158.29;;;12.70;80.11
28701;BME280;15877;52.344;16.790;2023-04-01T12:25:24;99156.37;;;12.69;80.28
28701;BME280;15877;52.344;16.790;2023-04-01T12:28:08;99159.20;;;12.65;80.65
28701;BME280;15877;52.344;16.790;2023-04-01T12:30:56;99162.92;;;12.55;80.93
28701;BME280;15877;52.344;16.790;2023-04-01T12:37:02;99157.20;;;12.53;80.59
28701;BME280;15877;52.344;16.790;2023-04-01T12:39:50;99178.55;;;12.50;80.75
28701;BME280;15877;52.344;16.790;2023-04-01T12:42:34;99185.87;;;12.51;81.07
28701;BME280;15877;52.344;16.790;2023-04-01T12:45:23;99187.62;;;12.36;81.48
28701;BME280;15877;52.344;16.790;2023-04-01T12:51:19;99194.73;;;12.48;80.72
28701;BME280;15877;52.344;16.790;2023-04-01T12:54:09;99200.09;;;12.43;80.37
28701;BME280;15877;52.344;16.790;2023-04-01T12:56:56;99202.33;;;12.39;80.60
28701;BME280;15877;52.344;16.790;2023-04-01T13:02:37;99208.90;;;12.29;80.87
28701;BME280;15877;52.344;16.790;2023-04-01T13:05:24;99210.85;;;12.39;80.21
28701;BME280;15877;52.344;16.790;2023-04-01T13:08:03;99210.31;;;12.30;80.13
28701;BME280;15877;52.344;16.790;2023-04-01T13:10:53;99214.52;;;12.18;80.90
28701;BME280;15877;52.344;16.790;2023-04-01T13:13:47;99220.61;;;12.04;81.44
28701;BME280;15877;52.344;16.790;2023-04-01T13:16:31;99224.89;;;12.07;81.83
28701;BME280;15877;52.344;16.790;2023-04-01T13:19:08;99207.31;;;12.09;81.46
28701;BME280;15877;52.344;16.790;2023-04-01T13:21:51;99217.77;;;12.22;81.18
28701;BME280;15877;52.344;16.790;2023-04-01T13:24:48;99226.03;;;12.23;80.57
28701;BME280;15877;52.344;16.790;2023-04-01T13:27:28;99226.00;;;12.31;80.27
28701;BME280;15877;52.344;16.790;2023-04-01T13:30:18;99227.77;;;12.27;79.87
28701;BME280;15877;52.344;16.790;2023-04-01T13:33:01;99226.53;;;12.36;79.65
28701;BME280;15877;52.344;16.790;2023-04-01T13:35:41;99227.09;;;12.34;80.17
28701;BME280;15877;52.344;16.790;2023-04-01T13:38:31;99228.36;;;12.39;80.00
28701;BME280;15877;52.344;16.790;2023-04-01T13:41:15;99233.55;;;12.50;79.20
28701;BME280;15877;52.344;16.790;2023-04-01T13:43:59;99229.77;;;12.42;78.80
28701;BME280;15877;52.344;16.790;2023-04-01T13:46:46;99232.52;;;12.49;78.97
28701;BME280;15877;52.344;16.790;2023-04-01T13:55:57;99243.25;;;12.67;77.57
28701;BME280;15877;52.344;16.790;2023-04-01T13:58:45;99244.75;;;12.54;77.89
28701;BME280;15877;52.344;16.790;2023-04-01T14:01:27;99247.87;;;12.65;78.30
28701;BME280;15877;52.344;16.790;2023-04-01T14:07:31;99255.41;;;12.52;76.74
28701;BME280;15877;52.344;16.790;2023-04-01T14:10:20;99262.55;;;12.59;76.99
28701;BME280;15877;52.344;16.790;2023-04-01T14:13:01;99260.77;;;12.50;76.35
28701;BME280;15877;52.344;16.790;2023-04-01T14:15:48;99265.61;;;12.35;76.27
28701;BME280;15877;52.344;16.790;2023-04-01T14:18:39;99269.97;;;12.35;76.27
28701;BME280;15877;52.344;16.790;2023-04-01T14:21:21;99271.99;;;12.51;75.56
28701;BME280;15877;52.344;16.790;2023-04-01T14:24:17;99267.70;;;12.48;75.11
28701;BME280;15877;52.344;16.790;2023-04-01T14:27:30;99272.05;;;12.53;75.06
28701;BME280;15877;52.344;16.790;2023-04-01T14:30:20;99273.42;;;12.47;74.72
28701;BME280;15877;52.344;16.790;2023-04-01T14:33:03;99281.45;;;12.31;74.51
28701;BME280;15877;52.344;16.790;2023-04-01T14:35:45;99282.30;;;12.40;73.85
28701;BME280;15877;52.344;16.790;2023-04-01T14:38:33;99281.89;;;12.41;73.84
28701;BME280;15877;52.344;16.790;2023-04-01T14:41:19;99279.65;;;12.28;73.76
28701;BME280;15877;52.344;16.790;2023-04-01T14:43:56;99295.42;;;12.39;74.02
28701;BME280;15877;52.344;16.790;2023-04-01T14:49:47;99300.63;;;12.33;73.99
28701;BME280;15877;52.344;16.790;2023-04-01T14:52:27;99302.84;;;12.39;74.27
28701;BME280;15877;52.344;16.790;2023-04-01T14:55:01;99306.19;;;12.35;74.07
28701;BME280;15877;52.344;16.790;2023-04-01T14:57:43;99311.77;;;12.34;73.82
28701;BME280;15877;52.344;16.790;2023-04-01T15:00:46;99310.84;;;12.21;74.19
28701;BME280;15877;52.344;16.790;2023-04-01T15:03:24;99311.04;;;12.06;74.82
28701;BME280;15877;52.344;16.790;2023-04-01T15:06:16;99317.31;;;12.14;74.83
28701;BME280;15877;52.344;16.790;2023-04-01T15:08:58;99321.20;;;12.15;74.70
28701;BME280;15877;52.344;16.790;2023-04-01T15:11:44;99326.42;;;12.25;74.75
28701;BME280;15877;52.344;16.790;2023-04-01T15:17:33;99331.21;;;12.21;74.72
28701;BME280;15877;52.344;16.790;2023-04-01T15:20:33;99334.98;;;12.08;75.03
28701;BME280;15877;52.344;16.790;2023-04-01T15:23:22;99342.45;;;12.07;75.01
28701;BME280;15877;52.344;16.790;2023-04-01T15:29:11;99351.91;;;12.14;74.71
28701;BME280;15877;52.344;16.790;2023-04-01T15:31:52;99353.83;;;12.02;74.82
28701;BME280;15877;52.344;16.790;2023-04-01T15:34:34;99358.19;;;12.08;74.56
28701;BME280;15877;52.344;16.790;2023-04-01T15:37:14;99357.56;;;12.01;74.12
28701;BME280;15877;52.344;16.790;2023-04-01T15:39:56;99361.87;;;11.89;74.48